Metar z pełnej godziny Komunikat METAR ze strony awiacja.imgw.pl Metar G00 EPGD METAR EPGD 162200Z 17004KT 7000 OVC028 M02/M03 Q1017 R11/290095 =